• Join FlightAware (Why Join?)
  • Login
  • US Flag 
02:09PM EDT


 

Airport Tracker/Info


-or-


 

Live Flight TrackerFlight Track Log ✈ DAL6241 ✈ 23-Apr-2013 ✈ KLGA - KCHO

Flight Track Log - Related Links

Times and Time Zones

All times are in EDT time to prevent confusion due to time zone crossing. See the DAL6241 flight status page for this flight to view local times or setup timezone preferences in your user account.

Time Position Orientation Groundspeed Altitude Reporting Facility
EDT Latitude Longitude Course Direction KTS MPH feet Rate Location/Type
08:11PM 40.7333 -73.8333 246° West 189 217 3,000  Level New York TRACON
08:12PM 40.7333 -73.7667 90° East 222 255 6,200 2,520 Climbing New York TRACON
08:13PM 40.7667 -73.8333 303° West 252 290 8,100 2,280 Climbing New York TRACON
08:14PM 40.7833 -73.9333 282° West 275 316 11,100 1,800 Climbing New York TRACON
08:15PM 40.7833 -74.0333 270° West 292 336 11,800 900 Climbing New York TRACON
08:16PM 40.5738 -74.4456 246° West  Level FlightAware Approximate
08:17PM 40.7714 -74.2975 267° West 352 405 14,300  Level New York Center
08:18PM 40.7133 -74.4314 240° Southwest 369 425 15,900 2,040 Climbing New York Center
08:19PM 40.6489 -74.5539 235° Southwest 397 457 18,400 1,980 Climbing New York Center
08:20PM 40.5892 -74.6600 233° Southwest 410 472 19,900 780 Climbing New York Center
08:21PM 40.5247 -74.7844 236° Southwest 415 478 20,000  Climbing New York Center
08:22PM 40.4514 -74.9167 234° Southwest 431 496 20,000 -60 Level New York Center
08:23PM 40.3742 -75.0372 230° Southwest 441 507 19,900  Descending New York Center
08:24PM 40.2947 -75.1522 228° Southwest 441 507 20,000 -120 Climbing New York Center
08:25PM 40.2156 -75.2639 227° Southwest 433 498 19,700 -960 Descending New York Center
08:26PM 40.1275 -75.3833 226° Southwest 426 490 18,200 -1,200 Descending New York Center
08:27PM 40.0503 -75.4892 226° Southwest 420 483 17,300 -1,020 Descending New York Center
08:28PM 40.0222 -75.5281 227° Southwest 398 458 16,800 -1,140 Descending FAA TRACON SMA TRACON (SMA)
08:28PM 39.9978 -75.5614 226° Southwest 391 450 16,500 -1,200 Descending FAA TRACON SMA TRACON (SMA)
08:28PM 39.9689 -75.6011 227° Southwest 390 449 16,000 -1,380 Descending FAA TRACON SMA TRACON (SMA)
08:29PM 39.9458 -75.6322 226° Southwest 389 448 15,600 -1,380 Descending FAA TRACON SMA TRACON (SMA)
08:29PM 39.9172 -75.6706 226° Southwest 386 444 15,100 -1,200 Descending FAA TRACON SMA TRACON (SMA)
08:29PM 39.8947 -75.7011 226° Southwest 384 442 14,800 -1,080 Descending FAA TRACON SMA TRACON (SMA)
08:30PM 39.8722 -75.7314 226° Southwest 381 438 14,400 -1,380 Descending FAA TRACON SMA TRACON (SMA)
08:30PM 39.8433 -75.7675 224° Southwest 379 436 13,900 -1,200 Descending FAA TRACON SMA TRACON (SMA)
08:30PM 39.8217 -75.7992 228° Southwest 378 435 13,600 -1,080 Descending FAA TRACON SMA TRACON (SMA)
08:31PM 39.7997 -75.8286 226° Southwest 377 434 13,200 -1,260 Descending FAA TRACON SMA TRACON (SMA)
08:31PM 39.7769 -75.8592 226° Southwest 377 434 12,800 -1,200 Descending FAA TRACON SMA TRACON (SMA)
08:31PM 39.7494 -75.8958 226° Southwest 376 433 12,400 -1,200 Descending FAA TRACON SMA TRACON (SMA)
08:32PM 39.7272 -75.9267 227° Southwest 375 432 12,000 -1,380 Descending FAA TRACON SMA TRACON (SMA)
08:32PM 39.6994 -75.9639 226° Southwest 374 430 11,500 -1,200 Descending FAA TRACON SMA TRACON (SMA)
08:32PM 39.6772 -75.9936 226° Southwest 374 430 11,200 -1,080 Descending FAA TRACON SMA TRACON (SMA)
08:33PM 39.6550 -76.0231 226° Southwest 373 429 10,800 -1,200 Descending FAA TRACON SMA TRACON (SMA)
08:33PM 39.6286 -76.0578 225° Southwest 373 429 10,400 -1,200 Descending FAA TRACON SMA TRACON (SMA)
08:33PM 39.6047 -76.0897 226° Southwest 373 429 10,000 -600 Descending FAA TRACON SMA TRACON (SMA)
08:34PM 39.5847 -76.1192 229° Southwest 371 427 10,000  Level FAA TRACON SMA TRACON (SMA)
08:34PM 39.5542 -76.1475 216° Southwest 348 400 10,000  Level FAA TRACON SMA TRACON (SMA)
08:34PM 39.5219 -76.1519 186° South 373 429 10,000  Level FAA TRACON SMA TRACON (SMA)
08:35PM 39.4900 -76.1525 181° South 369 425 10,000  Level FAA TRACON SMA TRACON (SMA)
08:35PM 39.4497 -76.1525 180° South 377 434 10,000  Level FAA TRACON SMA TRACON (SMA)
08:35PM 39.4164 -76.1544 183° South 386 444 10,000  Level FAA TRACON SMA TRACON (SMA)
08:36PM 39.3828 -76.1542 180° South 385 443 10,000  Level FAA TRACON SMA TRACON (SMA)
08:36PM 39.3428 -76.1547 181° South 380 437 10,000  Level FAA TRACON SMA TRACON (SMA)
08:36PM 39.3103 -76.1550 180° South 379 436 10,000  Level FAA TRACON SMA TRACON (SMA)
08:37PM 39.2797 -76.1553 180° South 376 433 10,000  Level FAA TRACON SMA TRACON (SMA)
08:37PM 39.2389 -76.1547 179° South 373 429 10,000  Level FAA TRACON SMA TRACON (SMA)
08:37PM 39.2081 -76.1558 182° South 368 423 10,000  Level FAA TRACON SMA TRACON (SMA)
08:38PM 39.1767 -76.1561 180° South 367 422 10,000  Level FAA TRACON SMA TRACON (SMA)
08:38PM 39.1372 -76.1558 180° South 368 423 10,000  Level FAA TRACON SMA TRACON (SMA)
08:38PM 39.1089 -76.1561 180° South 366 421 10,000  Level FAA TRACON SMA TRACON (SMA)
08:39PM 39.0756 -76.1561 180° South 366 421 10,000  Level FAA TRACON SMA TRACON (SMA)
08:39PM 39.0344 -76.1633 188° South 371 427 10,000  Level FAA TRACON SMA TRACON (SMA)
08:39PM 39.0036 -76.1761 198° South 372 428 10,000  Level FAA TRACON SMA TRACON (SMA)
08:40PM 38.9689 -76.1844 191° South 378 435 10,000  Level FAA TRACON SMA TRACON (SMA)
08:40PM 38.9297 -76.2006 198° South 373 429 10,000  Level FAA TRACON SMA TRACON (SMA)
08:40PM 38.9017 -76.2050 187° South 373 429 10,000  Level FAA TRACON SMA TRACON (SMA)
08:41PM 38.8706 -76.2158 195° South 376 433 10,000  Level FAA TRACON SMA TRACON (SMA)
08:41PM 38.8394 -76.2283 197° South 380 437 10,000  Level FAA TRACON SMA TRACON (SMA)
08:41PM 38.7944 -76.2378 189° South 382 440 10,000  Level FAA TRACON SMA TRACON (SMA)
08:42PM 38.7642 -76.2517 200° South 383 441 10,000  Level FAA TRACON SMA TRACON (SMA)
08:42PM 38.7319 -76.2644 197° South 382 440 10,000  Level FAA TRACON SMA TRACON (SMA)
08:42PM 38.7000 -76.2761 196° South 382 440 10,000  Level FAA TRACON SMA TRACON (SMA)
08:43PM 38.6661 -76.2856 192° South 382 440 10,000  Level FAA TRACON SMA TRACON (SMA)
08:43PM 38.6314 -76.2950 192° South 382 440 10,000  Level FAA TRACON SMA TRACON (SMA)
08:43PM 38.5883 -76.3056 191° South 383 441 10,000  Level FAA TRACON SMA TRACON (SMA)
08:44PM 38.5569 -76.3189 198° South 382 440 10,000  Level FAA TRACON SMA TRACON (SMA)
08:44PM 38.5239 -76.3283 193° South 381 438 10,000  Level FAA TRACON SMA TRACON (SMA)
08:44PM 38.4906 -76.3386 194° South 381 438 10,000 -180 Level FAA TRACON SMA TRACON (SMA)
08:45PM 38.4586 -76.3447 189° South 382 440 9,900  Descending FAA TRACON SMA TRACON (SMA)
08:45PM 38.4239 -76.3594 198° South 382 440 10,000 120 Climbing FAA TRACON SMA TRACON (SMA)
08:45PM 38.3903 -76.3694 193° South 383 441 10,000  Level FAA TRACON SMA TRACON (SMA)
08:46PM 38.3492 -76.3828 194° South 382 440 10,000  Level FAA TRACON SMA TRACON (SMA)
08:46PM 38.3156 -76.3928 193° South 383 441 10,000  Level FAA TRACON SMA TRACON (SMA)
08:46PM 38.2853 -76.4119 206° Southwest 375 432 10,000  Level FAA TRACON SMA TRACON (SMA)
08:47PM 38.2606 -76.4403 222° Southwest 375 432 10,000  Level FAA TRACON SMA TRACON (SMA)
08:47PM 38.2381 -76.4722 228° Southwest 374 430 10,000  Level FAA TRACON SMA TRACON (SMA)
08:47PM 38.2161 -76.5042 229° Southwest 373 429 10,000  Level FAA TRACON SMA TRACON (SMA)
08:48PM 38.1878 -76.5433 227° Southwest 374 430 10,000  Level FAA TRACON SMA TRACON (SMA)
08:48PM 38.1653 -76.5747 228° Southwest 374 430 10,000  Level FAA TRACON SMA TRACON (SMA)
08:48PM 38.1422 -76.6050 226° Southwest 372 428 10,000  Level FAA TRACON SMA TRACON (SMA)
08:49PM 38.1203 -76.6369 229° Southwest 372 428 10,000  Level FAA TRACON SMA TRACON (SMA)
08:49PM 38.0756 -76.6997 228° Southwest 374 430 10,000  Level FAA TRACON SMA TRACON (SMA)
08:50PM 38.0522 -76.7303 226° Southwest 373 429 10,000  Level FAA TRACON SMA TRACON (SMA)
08:50PM 38.0300 -76.7617 228° Southwest 372 428 10,000  Level FAA TRACON SMA TRACON (SMA)
08:50PM 38.0025 -76.8011 229° Southwest 371 427 10,000  Level FAA TRACON SMA TRACON (SMA)
08:51PM 37.9808 -76.8328 229° Southwest 370 426 10,000  Level FAA TRACON SMA TRACON (SMA)
08:51PM 37.9728 -76.8736 256° West 354 407 10,000  Level FAA TRACON SMA TRACON (SMA)
08:51PM 37.9581 -76.9103 243° Southwest 371 427 10,000  Level FAA TRACON SMA TRACON (SMA)
08:52PM 37.9411 -76.9456 239° Southwest 370 426 10,000  Level FAA TRACON SMA TRACON (SMA)
08:52PM 37.9200 -76.9903 239° Southwest 369 425 10,000  Level FAA TRACON SMA TRACON (SMA)
08:52PM 37.9031 -77.0264 239° Southwest 368 423 10,000  Level FAA TRACON SMA TRACON (SMA)
08:53PM 37.8856 -77.0617 238° Southwest 368 423 10,000  Level FAA TRACON SMA TRACON (SMA)
08:53PM 37.8686 -77.0972 239° Southwest 368 423 10,000  Level FAA TRACON SMA TRACON (SMA)
08:53PM 37.8511 -77.1322 238° Southwest 366 421 10,000  Level FAA TRACON SMA TRACON (SMA)
08:54PM 37.8344 -77.1678 239° Southwest 366 421 10,000  Level FAA TRACON SMA TRACON (SMA)
08:54PM 37.8308 -77.2083 264° West 358 412 10,000  Level FAA TRACON SMA TRACON (SMA)
08:54PM 37.8375 -77.2478 282° West 366 421 10,000  Level FAA TRACON SMA TRACON (SMA)
08:55PM 37.8464 -77.2961 283° West 353 406 10,000  Level FAA TRACON SMA TRACON (SMA)
08:55PM 37.8553 -77.3356 286° West 358 412 10,000  Level FAA TRACON SMA TRACON (SMA)
08:55PM 37.8631 -77.3742 284° West 356 410 10,000  Level FAA TRACON SMA TRACON (SMA)
08:56PM 37.8708 -77.4133 284° West 356 410 10,000  Level FAA TRACON SMA TRACON (SMA)
08:56PM 37.8781 -77.4517 283° West 352 405 10,000  Level FAA TRACON SMA TRACON (SMA)
08:56PM 37.8858 -77.4906 284° West 355 409 10,000  Level FAA TRACON SMA TRACON (SMA)
08:57PM 37.8881 -77.5006 286° West 356 410 10,000  Level FAA TRACON SMA TRACON (SMA)
08:58PM 37.9197 -77.6661 284° West 354 407 10,000  Level Washington Center
08:59PM 37.9447 -77.7853 285° West 354 407 10,000  Level Washington Center
09:00PM 37.9675 -77.9069 283° West 354 407 10,000 -240 Level Washington Center
09:01PM 37.9864 -78.0078 283° West 335 386 9,600 -1,140 Descending Washington Center
09:02PM 37.9992 -78.0950 281° West 289 333 7,800 -1,800 Descending Washington Center
09:03PM 38.0017 -78.1742 272° West 259 298 6,000 -1,860 Descending Washington Center
09:04PM 38.0078 -78.2747 274° West 254 292 4,100 -1,500 Descending Washington Center
09:05PM 38.0125 -78.3406 275° West 254 292 3,000 -720 Descending Washington Center
09:06PM 38.0228 -78.4333 278° West 235 270 2,700 -300 Descending Washington Center
09:07PM 38.0467 -78.4792 304° West 196 226 2,400 -600 Descending Washington Center
09:08PM 38.0864 -78.4806 358° North 135 155 1,600 -840 Descending Washington Center
09:10PM 38.1333 -78.4500 North  Level FlightAware Approximate
09:17PM 38.1386 -78.4529 North  Level Estimated
09:18PM 38.1333 -78.4500 North  Level FlightAware Approximate
09:19PM 38.1386 -78.4529 North  Level Estimated
09:20PM 38.1333 -78.4500 North  Level FlightAware Approximate
09:21PM 38.1386 -78.4529 North  Level Estimated
09:22PM 38.1333 -78.4500 North  Level FlightAware Approximate
09:23PM 38.1386 -78.4529 North  Level Estimated
09:24PM 38.1333 -78.4500 North  Level FlightAware Approximate
09:25PM 38.1386 -78.4529 North  Level Estimated